Time;durP1;ratioP1;P1;durP2;ratioP2;P2;SDS_P1;SDS_P2;PMS_P1;PMS_P2;Temp;Humidity;BMP_temperature;BMP_pressure;BME280_temperature;BME280_humidity;BME280_pressure;Samples;Min_cycle;Max_cycle;Signal;HPM_P1;HPM_P2
2021/09/18 00:01:04;;;;;;;16.15;8.63;;;24.90;82.70;;;;;;5096734;28;20056;-68
2021/09/18 00:03:30;;;;;;;19.15;9.00;;;24.90;79.40;;;;;;5096190;28;20020;-70
2021/09/18 00:05:56;;;;;;;22.63;9.80;;;24.90;80.80;;;;;;5096285;28;20027;-73
2021/09/18 00:08:22;;;;;;;20.17;8.82;;;24.90;79.60;;;;;;5096195;28;20038;-68
2021/09/18 00:10:48;;;;;;;21.52;8.82;;;24.80;79.30;;;;;;5077961;28;20038;-69
2021/09/18 00:13:13;;;;;;;17.88;8.38;;;24.70;82.20;;;;;;5096068;28;20036;-70
2021/09/18 00:15:39;;;;;;;20.58;8.98;;;24.70;79.00;;;;;;5096141;28;20398;-70
2021/09/18 00:18:05;;;;;;;17.77;9.13;;;24.70;79.00;;;;;;5096716;28;20052;-69
2021/09/18 00:20:31;;;;;;;18.63;8.82;;;24.70;79.40;;;;;;5097159;28;20073;-69
2021/09/18 00:22:58;;;;;;;19.65;8.88;;;24.70;78.90;;;;;;5096441;28;20028;-70
2021/09/18 00:25:23;;;;;;;17.02;8.40;;;24.70;83.80;;;;;;5096108;28;20052;-68
2021/09/18 00:27:49;;;;;;;14.93;8.05;;;24.70;80.90;;;;;;5078174;28;20492;-70
2021/09/18 00:30:15;;;;;;;16.45;8.43;;;24.70;79.50;;;;;;5095745;28;20055;-71
2021/09/18 00:32:41;;;;;;;16.98;8.52;;;24.70;82.80;;;;;;5095652;28;20107;-70
2021/09/18 00:35:07;;;;;;;14.25;8.40;;;24.60;82.10;;;;;;5095747;28;20099;-71
2021/09/18 00:37:33;;;;;;;16.83;8.15;;;24.60;79.90;;;;;;5095562;28;20027;-71
2021/09/18 00:39:59;;;;;;;15.20;7.75;;;24.60;80.90;;;;;;5095723;28;20024;-70
2021/09/18 00:42:25;;;;;;;17.33;8.15;;;24.70;78.00;;;;;;5095562;28;20028;-70
2021/09/18 00:44:51;;;;;;;17.70;8.07;;;24.60;79.10;;;;;;5095250;28;20437;-72
2021/09/18 00:47:18;;;;;;;16.17;7.80;;;24.50;77.60;;;;;;5095396;28;20500;-70
2021/09/18 00:49:43;;;;;;;20.45;8.45;;;24.50;77.80;;;;;;5095312;28;20027;-70
2021/09/18 00:52:09;;;;;;;22.35;8.25;;;24.50;78.10;;;;;;5077106;28;20032;-69
2021/09/18 00:54:35;;;;;;;15.80;7.28;;;24.50;80.80;;;;;;5095286;28;20070;-69
2021/09/18 00:57:01;;;;;;;13.52;7.72;;;24.50;80.30;;;;;;5095167;28;20179;-70
2021/09/18 00:59:27;;;;;;;16.33;8.25;;;24.50;78.70;;;;;;5095605;28;20036;-69
2021/09/18 01:01:53;;;;;;;17.77;6.95;;;24.50;80.80;;;;;;5094258;28;20534;-70
2021/09/18 01:04:19;;;;;;;17.60;7.63;;;24.50;81.60;;;;;;5095260;28;20028;-70
2021/09/18 01:06:44;;;;;;;20.17;8.30;;;24.50;82.70;;;;;;5095098;28;20032;-73
2021/09/18 01:09:11;;;;;;;18.10;6.93;;;24.50;82.10;;;;;;5095149;28;20021;-70
2021/09/18 01:11:37;;;;;;;16.00;7.60;;;24.40;83.10;;;;;;5095361;28;20469;-71
2021/09/18 01:14:03;;;;;;;14.85;7.75;;;24.40;82.10;;;;;;5094787;28;20024;-69
2021/09/18 01:16:28;;;;;;;14.18;7.43;;;24.40;82.10;;;;;;5094939;28;20562;-70
2021/09/18 01:18:54;;;;;;;16.33;7.35;;;24.40;82.00;;;;;;5094646;28;20048;-71
2021/09/18 01:21:20;;;;;;;13.25;6.72;;;24.40;82.00;;;;;;5076635;28;20067;-72
2021/09/18 01:23:45;;;;;;;16.13;7.38;;;24.40;80.00;;;;;;5094992;28;20021;-73
2021/09/18 01:26:11;;;;;;;17.33;7.55;;;24.40;78.50;;;;;;5094551;28;20488;-81
2021/09/18 01:28:40;;;;;;;14.05;7.45;;;24.40;79.60;;;;;;5094860;28;20051;-70
2021/09/18 01:31:07;;;;;;;15.45;7.35;;;24.40;82.50;;;;;;5094724;28;20081;-71
2021/09/18 01:33:33;;;;;;;13.25;7.35;;;24.40;82.90;;;;;;5094746;28;20523;-71
2021/09/18 01:35:59;;;;;;;18.88;8.48;;;24.30;81.70;;;;;;5094724;28;20024;-70
2021/09/18 01:38:25;;;;;;;15.45;7.95;;;24.40;81.80;;;;;;5080221;28;20458;-69
2021/09/18 01:40:50;;;;;;;17.73;8.77;;;24.30;80.70;;;;;;5099779;28;20020;-69
2021/09/18 01:43:16;;;;;;;14.27;8.00;;;24.30;81.30;;;;;;5099561;28;20099;-71
2021/09/18 01:45:42;;;;;;;15.82;7.75;;;24.30;81.40;;;;;;5098049;28;20084;-73
2021/09/18 01:48:11;;;;;;;20.02;7.72;;;24.30;81.20;;;;;;5097372;28;20059;-70
2021/09/18 01:50:51;;;;;;;16.33;8.07;;;24.30;83.10;;;;;;5094347;28;20031;-70
2021/09/18 01:53:19;;;;;;;19.00;8.05;;;24.20;78.00;;;;;;5094633;28;20024;-69
2021/09/18 01:55:46;;;;;;;18.45;8.82;;;24.20;84.20;;;;;;5093996;28;20416;-70
2021/09/18 01:58:12;;;;;;;16.60;7.97;;;24.20;84.40;;;;;;5094054;28;20054;-69
2021/09/18 02:00:40;;;;;;;16.77;7.90;;;24.10;82.70;;;;;;5094230;28;20023;-70
2021/09/18 02:03:07;;;;;;;16.27;8.68;;;24.00;85.10;;;;;;5094148;28;20391;-69
2021/09/18 02:05:32;;;;;;;16.77;8.60;;;24.00;85.20;;;;;;5093810;28;20107;-69
2021/09/18 02:07:58;;;;;;;13.43;7.75;;;23.90;84.30;;;;;;5093886;28;20071;-69
2021/09/18 02:10:27;;;;;;;15.32;8.05;;;23.90;83.80;;;;;;5094054;28;20020;-70
2021/09/18 02:12:54;;;;;;;16.98;7.88;;;23.90;85.50;;;;;;5093719;28;20027;-70
2021/09/18 02:15:21;;;;;;;18.48;7.88;;;23.90;85.40;;;;;;5093905;28;20118;-69
2021/09/18 02:17:47;;;;;;;15.40;7.75;;;23.80;85.50;;;;;;5093500;28;20048;-69
2021/09/18 02:20:17;;;;;;;17.65;7.82;;;23.80;83.90;;;;;;5093647;28;20603;-68
2021/09/18 02:22:43;;;;;;;15.63;7.60;;;23.70;83.80;;;;;;5093749;28;20021;-69
2021/09/18 02:25:10;;;;;;;18.77;7.57;;;23.70;79.90;;;;;;5093722;28;20020;-69
2021/09/18 02:27:36;;;;;;;20.23;8.68;;;23.70;82.00;;;;;;5093605;28;20478;-69
2021/09/18 02:30:02;;;;;;;16.95;7.40;;;23.70;84.20;;;;;;5075588;28;20027;-70
2021/09/18 02:32:28;;;;;;;14.38;7.70;;;23.60;84.70;;;;;;5093611;28;20031;-70
2021/09/18 02:34:55;;;;;;;14.02;7.15;;;23.60;81.90;;;;;;5092976;28;20048;-69
2021/09/18 02:37:20;;;;;;;21.52;8.88;;;23.70;83.60;;;;;;5093441;28;20027;-69
2021/09/18 02:39:46;;;;;;;18.10;7.80;;;23.70;84.10;;;;;;5093434;28;20498;-69
2021/09/18 02:42:12;;;;;;;17.25;7.68;;;23.60;82.90;;;;;;5093557;28;20016;-69
2021/09/18 02:44:38;;;;;;;17.27;7.82;;;23.60;83.70;;;;;;5093439;28;20093;-69
2021/09/18 02:47:04;;;;;;;18.35;8.18;;;23.70;81.70;;;;;;5093400;28;20043;-71
2021/09/18 02:49:29;;;;;;;17.48;7.97;;;23.70;82.40;;;;;;5093606;28;20474;-68
2021/09/18 02:51:55;;;;;;;18.55;8.43;;;23.70;82.10;;;;;;5093719;28;20111;-69
2021/09/18 02:54:21;;;;;;;15.23;8.02;;;23.60;81.80;;;;;;5094005;28;20028;-69
2021/09/18 02:56:47;;;;;;;17.88;7.90;;;23.60;83.50;;;;;;5093312;28;20044;-69
2021/09/18 02:59:12;;;;;;;18.63;8.10;;;23.50;83.50;;;;;;5093342;28;20122;-70
2021/09/18 03:01:38;;;;;;;17.42;7.85;;;23.50;83.20;;;;;;5093093;28;20449;-71
2021/09/18 03:04:04;;;;;;;18.65;7.72;;;23.40;84.10;;;;;;5093490;28;20077;-69
2021/09/18 03:06:30;;;;;;;16.83;8.02;;;23.40;84.90;;;;;;5093148;28;20055;-69
2021/09/18 03:08:56;;;;;;;19.65;9.02;;;23.50;80.90;;;;;;5093485;28;20016;-70
2021/09/18 03:11:22;;;;;;;21.88;8.43;;;23.40;82.40;;;;;;5093141;28;20027;-69
2021/09/18 03:13:48;;;;;;;15.65;7.95;;;23.40;84.20;;;;;;5093242;28;20096;-70
2021/09/18 03:16:14;;;;;;;20.83;8.65;;;23.40;83.50;;;;;;5092915;28;20114;-69
2021/09/18 03:18:40;;;;;;;17.20;8.05;;;23.50;83.60;;;;;;5092975;28;20048;-71
2021/09/18 03:21:05;;;;;;;18.27;8.80;;;23.50;83.90;;;;;;5092984;28;20024;-70
2021/09/18 03:23:31;;;;;;;19.58;8.63;;;23.40;84.10;;;;;;5093361;28;20064;-70
2021/09/18 03:25:57;;;;;;;16.52;8.80;;;23.40;84.10;;;;;;5095255;28;20032;-72
2021/09/18 03:28:23;;;;;;;16.95;7.82;;;23.40;84.50;;;;;;5096945;28;20028;-69
2021/09/18 03:30:48;;;;;;;19.77;8.40;;;23.30;84.60;;;;;;5097023;28;20487;-69
2021/09/18 03:33:14;;;;;;;18.23;7.90;;;23.30;84.90;;;;;;5097231;28;20020;-70
2021/09/18 03:35:42;;;;;;;15.85;7.75;;;23.30;84.30;;;;;;5096646;28;20030;-69
2021/09/18 03:38:08;;;;;;;15.82;8.15;;;23.40;84.50;;;;;;5096732;28;20458;-69
2021/09/18 03:40:34;;;;;;;18.70;8.05;;;23.40;85.70;;;;;;5096598;28;20024;-69
2021/09/18 03:43:00;;;;;;;15.65;7.93;;;23.40;84.50;;;;;;5096792;28;20084;-68
2021/09/18 03:45:25;;;;;;;15.52;8.30;;;23.40;84.80;;;;;;5096302;28;20495;-69
2021/09/18 03:47:51;;;;;;;16.58;8.13;;;23.40;84.60;;;;;;5096846;28;20028;-69
2021/09/18 03:50:18;;;;;;;18.02;8.52;;;23.30;84.90;;;;;;5096452;28;20462;-69
2021/09/18 03:52:44;;;;;;;15.75;8.02;;;23.40;84.60;;;;;;5096533;28;20380;-69
2021/09/18 03:55:10;;;;;;;20.05;8.90;;;23.40;84.80;;;;;;5096410;28;20477;-70
2021/09/18 03:57:36;;;;;;;17.75;8.65;;;23.40;84.30;;;;;;5096438;28;20532;-69
2021/09/18 04:00:03;;;;;;;15.18;9.30;;;23.30;85.00;;;;;;5096016;28;20106;-69
2021/09/18 04:02:29;;;;;;;12.18;8.32;;;23.40;84.80;;;;;;5096252;28;20067;-69
2021/09/18 04:04:54;;;;;;;14.00;8.20;;;23.30;85.40;;;;;;5096433;28;20040;-68
2021/09/18 04:07:20;;;;;;;14.80;8.27;;;23.30;81.00;;;;;;5096138;28;20105;-69
2021/09/18 04:09:46;;;;;;;15.27;7.75;;;23.20;80.20;;;;;;5096312;28;20032;-70
2021/09/18 04:12:11;;;;;;;20.95;8.18;;;23.20;80.90;;;;;;5096090;28;20024;-70
2021/09/18 04:14:37;;;;;;;19.58;8.65;;;23.30;81.00;;;;;;5095935;28;20024;-69
2021/09/18 04:17:03;;;;;;;16.00;8.60;;;23.30;84.20;;;;;;5077614;28;20075;-69
2021/09/18 04:19:28;;;;;;;14.13;7.70;;;23.30;84.50;;;;;;5096083;28;20062;-70
2021/09/18 04:21:54;;;;;;;20.13;8.50;;;23.40;83.50;;;;;;5095835;28;20397;-69
2021/09/18 04:24:20;;;;;;;16.80;8.88;;;23.40;84.50;;;;;;5095816;28;20039;-67
2021/09/18 04:26:45;;;;;;;19.60;8.90;;;23.30;84.60;;;;;;5095609;28;20036;-69
2021/09/18 04:29:11;;;;;;;20.27;8.15;;;23.30;81.60;;;;;;5095590;28;20099;-69
2021/09/18 04:31:37;;;;;;;18.55;8.50;;;23.30;83.70;;;;;;5095861;28;20454;-70
2021/09/18 04:34:02;;;;;;;15.05;9.15;;;23.30;84.10;;;;;;5096004;28;20028;-69
2021/09/18 04:36:28;;;;;;;17.70;9.35;;;23.30;84.60;;;;;;5094271;28;20028;-69
2021/09/18 04:38:54;;;;;;;16.42;8.60;;;23.30;84.80;;;;;;5095687;28;20099;-69
2021/09/18 04:41:20;;;;;;;18.05;8.02;;;23.30;85.00;;;;;;5095565;28;20032;-69
2021/09/18 04:43:46;;;;;;;12.73;8.18;;;23.30;85.00;;;;;;5095584;28;20020;-70
2021/09/18 04:46:12;;;;;;;16.10;8.70;;;23.30;82.70;;;;;;5095481;28;20528;-70
2021/09/18 04:48:37;;;;;;;15.18;8.50;;;23.30;83.40;;;;;;5095382;28;20016;-69
2021/09/18 04:51:03;;;;;;;20.83;8.25;;;23.30;84.10;;;;;;5095490;28;20031;-69
2021/09/18 04:53:29;;;;;;;17.38;8.20;;;23.30;84.90;;;;;;5095644;28;20021;-69
2021/09/18 04:55:54;;;;;;;13.98;8.88;;;23.20;80.30;;;;;;5096656;28;20024;-73
2021/09/18 04:58:20;;;;;;;17.23;9.40;;;23.20;80.40;;;;;;5101807;28;20078;-74
2021/09/18 05:00:49;;;;;;;16.42;8.45;;;23.20;80.90;;;;;;5089662;28;20059;-74
2021/09/18 05:03:15;;;;;;;18.02;9.10;;;23.10;81.00;;;;;;5105798;28;20031;-75
2021/09/18 05:05:40;;;;;;;16.60;9.05;;;23.10;81.10;;;;;;5096266;28;20120;-72
2021/09/18 05:08:06;;;;;;;16.00;8.90;;;23.20;82.00;;;;;;5095802;28;20103;-76
2021/09/18 05:10:32;;;;;;;16.50;9.35;;;23.10;84.20;;;;;;5095816;28;20028;-72
2021/09/18 05:12:57;;;;;;;15.38;8.50;;;23.10;81.30;;;;;;5095236;28;20546;-71
2021/09/18 05:15:24;;;;;;;12.80;8.65;;;23.20;84.80;;;;;;5095454;28;20032;-70
2021/09/18 05:17:53;;;;;;;14.57;8.85;;;23.20;84.90;;;;;;5094899;28;20453;-80
2021/09/18 05:20:19;;;;;;;17.92;8.25;;;23.20;82.90;;;;;;5076756;28;20059;-68
2021/09/18 05:22:44;;;;;;;15.65;9.70;;;23.20;84.90;;;;;;5094698;28;20396;-74
2021/09/18 05:25:10;;;;;;;14.13;8.23;;;23.10;85.60;;;;;;5094475;28;20525;-74
2021/09/18 05:27:36;;;;;;;16.67;9.55;;;23.10;86.50;;;;;;5094987;28;20030;-69
2021/09/18 05:30:04;;;;;;;12.13;7.57;;;23.10;86.60;;;;;;5099288;28;20052;-69
2021/09/18 05:32:29;;;;;;;18.52;8.25;;;23.00;86.20;;;;;;5096147;28;20028;-70
2021/09/18 05:34:55;;;;;;;19.00;8.55;;;23.00;86.20;;;;;;5094620;28;20103;-69
2021/09/18 05:37:21;;;;;;;14.38;8.27;;;23.00;86.10;;;;;;5094641;28;20020;-69
2021/09/18 05:39:47;;;;;;;16.05;8.68;;;23.10;87.30;;;;;;5076342;28;20039;-69
2021/09/18 05:42:12;;;;;;;15.45;7.88;;;23.00;85.30;;;;;;5094363;28;20016;-69
2021/09/18 05:44:38;;;;;;;26.85;8.63;;;23.10;86.20;;;;;;5094215;28;20021;-70
2021/09/18 05:47:03;;;;;;;14.00;8.35;;;23.10;86.10;;;;;;5075921;28;20040;-70
2021/09/18 05:49:29;;;;;;;16.35;7.85;;;23.20;86.00;;;;;;5093978;28;20110;-70
2021/09/18 05:51:55;;;;;;;16.40;7.72;;;23.30;85.40;;;;;;5094445;28;20032;-70
2021/09/18 05:54:21;;;;;;;18.60;8.35;;;23.40;84.70;;;;;;5094237;28;20031;-70
2021/09/18 05:56:47;;;;;;;18.02;8.15;;;23.60;84.50;;;;;;5094147;28;20362;-70
2021/09/18 05:59:12;;;;;;;16.02;7.30;;;23.70;84.30;;;;;;5094104;28;20358;-71
2021/09/18 06:01:38;;;;;;;15.45;7.45;;;23.90;83.00;;;;;;5094121;28;20046;-70
2021/09/18 06:04:04;;;;;;;11.65;6.57;;;24.00;82.30;;;;;;5094065;28;20058;-70
2021/09/18 06:06:29;;;;;;;13.00;6.70;;;24.20;81.30;;;;;;5093809;28;20039;-69
2021/09/18 06:08:55;;;;;;;12.07;7.35;;;24.40;79.10;;;;;;5093780;28;20016;-69
2021/09/18 06:11:21;;;;;;;13.45;7.00;;;24.50;76.90;;;;;;5093624;28;20032;-69
2021/09/18 06:13:49;;;;;;;13.10;6.93;;;24.70;75.50;;;;;;5093739;28;20094;-70
2021/09/18 06:16:16;;;;;;;16.17;7.57;;;25.00;72.80;;;;;;5093767;28;20028;-70
2021/09/18 06:18:41;;;;;;;21.23;7.65;;;25.10;72.80;;;;;;5093464;28;20485;-69
2021/09/18 06:21:08;;;;;;;15.32;7.00;;;25.20;72.10;;;;;;5093643;28;20024;-74
2021/09/18 06:23:37;;;;;;;18.85;7.30;;;25.30;72.10;;;;;;5093513;28;20024;-69
2021/09/18 06:26:04;;;;;;;17.05;7.85;;;25.40;73.30;;;;;;5093212;28;20035;-73
2021/09/18 06:28:30;;;;;;;12.32;7.28;;;25.50;72.60;;;;;;5075208;28;20389;-71
2021/09/18 06:30:55;;;;;;;14.10;6.72;;;25.70;72.00;;;;;;5093294;28;20028;-75
2021/09/18 06:33:21;;;;;;;19.48;7.75;;;26.00;71.00;;;;;;5093536;28;20423;-69
2021/09/18 06:35:47;;;;;;;14.70;6.90;;;26.20;70.30;;;;;;5093234;28;20020;-70
2021/09/18 06:38:14;;;;;;;15.40;7.20;;;26.30;69.60;;;;;;5093831;28;20028;-70
2021/09/18 06:40:40;;;;;;;15.95;8.25;;;26.40;69.20;;;;;;5093738;28;20028;-70
2021/09/18 06:43:06;;;;;;;18.15;9.65;;;26.50;69.00;;;;;;5093421;28;20028;-70
2021/09/18 06:45:32;;;;;;;18.05;7.32;;;26.60;68.60;;;;;;5093182;28;20024;-70
2021/09/18 06:47:57;;;;;;;22.05;8.30;;;26.70;68.10;;;;;;5074984;28;20032;-71
2021/09/18 06:50:23;;;;;;;13.15;7.80;;;26.90;67.60;;;;;;5093236;28;20024;-70
2021/09/18 06:52:49;;;;;;;16.92;6.80;;;27.00;67.30;;;;;;5074932;28;20059;-70
2021/09/18 06:55:14;;;;;;;15.18;7.50;;;27.10;67.20;;;;;;5093308;28;20467;-72
2021/09/18 06:57:40;;;;;;;12.90;6.32;;;27.20;66.90;;;;;;5074799;28;20089;-72
2021/09/18 07:00:08;;;;;;;17.30;6.93;;;27.20;66.70;;;;;;5093865;28;20043;-73
2021/09/18 07:02:36;;;;;;;16.13;6.65;;;27.20;65.30;;;;;;5097234;28;20500;-72
2021/09/18 07:05:03;;;;;;;15.32;8.23;;;27.30;65.70;;;;;;5097285;28;20047;-71
2021/09/18 07:07:29;;;;;;;18.60;7.15;;;27.30;65.70;;;;;;5097240;28;20110;-71
2021/09/18 07:09:56;;;;;;;16.23;6.88;;;27.40;65.30;;;;;;5096951;28;20532;-73
2021/09/18 07:12:22;;;;;;;17.55;7.18;;;27.50;64.80;;;;;;5097047;28;20021;-70
2021/09/18 07:14:47;;;;;;;13.77;7.07;;;27.50;64.20;;;;;;5097056;28;20032;-80
2021/09/18 07:17:13;;;;;;;13.40;6.35;;;27.50;63.80;;;;;;5096857;28;20094;-71
2021/09/18 07:19:39;;;;;;;15.35;6.47;;;27.50;63.80;;;;;;5078496;28;20024;-69
2021/09/18 07:22:05;;;;;;;12.85;6.07;;;27.50;63.50;;;;;;5096844;28;20427;-73
2021/09/18 07:24:32;;;;;;;19.20;6.05;;;27.70;63.20;;;;;;5078513;28;20021;-71
2021/09/18 07:27:01;;;;;;;12.43;5.75;;;27.80;62.60;;;;;;5096419;28;20040;-72
2021/09/18 07:29:27;;;;;;;15.48;6.03;;;27.80;62.10;;;;;;5096437;28;20032;-71
2021/09/18 07:31:54;;;;;;;16.05;6.30;;;27.90;61.40;;;;;;5096643;28;20026;-69
2021/09/18 07:34:23;;;;;;;17.00;5.70;;;27.90;61.00;;;;;;5096412;28;20370;-71
2021/09/18 07:36:48;;;;;;;15.98;6.20;;;27.90;61.10;;;;;;5096251;28;20074;-70
2021/09/18 07:39:14;;;;;;;16.40;6.00;;;28.00;60.90;;;;;;5096372;28;20458;-69
2021/09/18 07:41:43;;;;;;;13.55;5.95;;;28.00;60.40;;;;;;5096139;28;20034;-72
2021/09/18 07:44:21;;;;;;;13.07;6.88;;;28.00;61.10;;;;;;5096663;28;20028;-73
2021/09/18 07:46:56;;;;;;;13.93;5.93;;;28.00;60.90;;;;;;5079138;28;20047;-75
2021/09/18 07:49:42;;;;;;;15.63;5.80;;;28.00;60.50;;;;;;5097670;28;20030;-75
2021/09/18 07:52:07;;;;;;;16.67;6.25;;;28.00;60.40;;;;;;5095876;28;20123;-72
2021/09/18 07:54:33;;;;;;;11.60;5.70;;;28.00;60.60;;;;;;5096065;28;20052;-71
2021/09/18 07:56:59;;;;;;;12.27;5.97;;;28.00;60.90;;;;;;5095967;28;20453;-70
2021/09/18 07:59:24;;;;;;;11.63;5.60;;;28.00;61.00;;;;;;5077685;28;20020;-72
2021/09/18 08:01:50;;;;;;;14.52;5.65;;;27.90;61.50;;;;;;5095917;28;20039;-74
2021/09/18 08:04:16;;;;;;;13.07;4.78;;;27.90;62.00;;;;;;5096155;28;20027;-71
2021/09/18 08:06:41;;;;;;;15.93;5.97;;;27.80;62.70;;;;;;5095802;28;20115;-70
2021/09/18 08:09:08;;;;;;;14.95;5.43;;;27.70;63.20;;;;;;5095759;28;20024;-71
2021/09/18 08:11:33;;;;;;;18.00;5.32;;;27.60;63.70;;;;;;5095470;28;20032;-70
2021/09/18 08:14:02;;;;;;;14.48;5.53;;;27.60;64.00;;;;;;5095780;28;20433;-70
2021/09/18 08:16:29;;;;;;;11.05;5.25;;;27.50;64.40;;;;;;5095957;28;20035;-71
2021/09/18 08:18:55;;;;;;;12.00;5.20;;;27.40;64.60;;;;;;5096064;28;20101;-71
2021/09/18 08:21:24;;;;;;;12.40;4.95;;;27.20;64.80;;;;;;5096352;28;20348;-70
2021/09/18 08:23:49;;;;;;;15.60;5.50;;;27.20;64.60;;;;;;5096300;28;20039;-70
2021/09/18 08:26:15;;;;;;;15.43;5.32;;;27.10;65.30;;;;;;5077237;28;20028;-70
2021/09/18 08:28:42;;;;;;;16.20;6.03;;;27.10;65.10;;;;;;5095744;28;20028;-69
2021/09/18 08:31:08;;;;;;;12.43;5.40;;;27.10;65.10;;;;;;5095664;28;20028;-71
2021/09/18 08:33:34;;;;;;;19.13;6.05;;;27.10;65.10;;;;;;5095348;28;20020;-70
2021/09/18 08:36:00;;;;;;;12.70;4.85;;;27.10;65.00;;;;;;5095056;28;20112;-71
2021/09/18 08:38:26;;;;;;;11.27;5.25;;;27.10;65.10;;;;;;5095079;28;20034;-69
2021/09/18 08:40:54;;;;;;;16.40;5.50;;;27.10;65.00;;;;;;5094945;28;20074;-72
2021/09/18 08:43:20;;;;;;;10.60;4.10;;;27.10;64.90;;;;;;5094981;28;20032;-70
2021/09/18 08:45:47;;;;;;;11.98;4.75;;;27.20;65.00;;;;;;5094879;28;20080;-69
2021/09/18 08:48:15;;;;;;;10.65;4.47;;;27.20;65.40;;;;;;5076824;28;20020;-70
2021/09/18 08:50:40;;;;;;;12.60;4.85;;;27.20;64.70;;;;;;5094875;28;20036;-72
2021/09/18 08:53:06;;;;;;;16.17;5.22;;;27.20;64.70;;;;;;5094784;28;20487;-71
2021/09/18 08:55:32;;;;;;;17.55;5.00;;;27.20;64.70;;;;;;5095064;28;20035;-71
2021/09/18 08:57:58;;;;;;;13.48;5.60;;;27.20;64.60;;;;;;5094491;28;20493;-71
2021/09/18 09:00:32;;;;;;;15.50;5.30;;;27.10;64.60;;;;;;5094551;28;20469;-70
2021/09/18 09:03:00;;;;;;;18.40;6.45;;;27.20;64.60;;;;;;5095161;28;20028;-70
2021/09/18 09:05:28;;;;;;;16.67;5.60;;;27.30;64.80;;;;;;5094383;28;20016;-71
2021/09/18 09:08:08;;;;;;;12.95;5.22;;;27.40;64.50;;;;;;5094750;28;20039;-70
2021/09/18 09:10:34;;;;;;;15.10;5.20;;;27.40;64.50;;;;;;5094420;28;20020;-71
2021/09/18 09:13:13;;;;;;;18.38;5.57;;;27.50;64.60;;;;;;5076519;28;20028;-71
2021/09/18 09:15:43;;;;;;;14.00;4.85;;;27.60;64.30;;;;;;5094271;28;20376;-70
2021/09/18 09:18:40;;;;;;;14.82;5.20;;;27.60;64.40;;;;;;5093922;28;20070;-69
2021/09/18 09:21:15;;;;;;;15.90;5.72;;;27.60;64.20;;;;;;5092895;28;20102;-71
2021/09/18 09:23:43;;;;;;;12.35;4.90;;;27.60;64.40;;;;;;5093661;28;20012;-71
2021/09/18 09:26:09;;;;;;;13.88;5.15;;;27.60;64.40;;;;;;5094040;28;20028;-71
2021/09/18 09:28:40;;;;;;;10.77;4.10;;;27.60;64.40;;;;;;5094165;28;20024;-71
2021/09/18 09:31:12;;;;;;;12.90;4.60;;;27.60;64.30;;;;;;5093967;28;20016;-69
2021/09/18 09:34:06;;;;;;;10.95;4.55;;;27.60;64.30;;;;;;5093902;28;20493;-71
2021/09/18 09:36:38;;;;;;;12.38;3.95;;;27.60;64.10;;;;;;5075635;28;20016;-70
2021/09/18 09:39:08;;;;;;;13.23;3.87;;;27.60;64.10;;;;;;5093962;28;20028;-70
2021/09/18 09:41:41;;;;;;;13.02;4.35;;;27.60;63.70;;;;;;5075509;28;20043;-70
2021/09/18 09:44:32;;;;;;;10.85;4.32;;;27.50;63.20;;;;;;5093679;28;20047;-71
2021/09/18 09:46:59;;;;;;;13.05;4.40;;;27.60;62.80;;;;;;5082051;28;20044;-70
2021/09/18 09:49:52;;;;;;;12.85;5.70;;;27.60;62.20;;;;;;5093757;28;20024;-74
2021/09/18 09:52:24;;;;;;;14.77;6.10;;;27.70;62.00;;;;;;5093835;28;20463;-70
2021/09/18 09:54:54;;;;;;;12.65;4.07;;;27.80;61.90;;;;;;5075347;28;20059;-72
2021/09/18 09:57:21;;;;;;;11.43;3.55;;;27.80;60.70;;;;;;5093915;28;20081;-70
2021/09/18 09:59:48;;;;;;;8.95;3.40;;;27.90;60.90;;;;;;5093541;28;20470;-70
2021/09/18 10:02:14;;;;;;;7.78;3.13;;;28.00;59.60;;;;;;5093499;28;20028;-74
2021/09/18 10:04:41;;;;;;;10.32;2.97;;;28.00;59.20;;;;;;5093355;28;20024;-70
2021/09/18 10:07:09;;;;;;;12.57;3.50;;;28.10;57.50;;;;;;5075089;28;20115;-73
2021/09/18 10:09:35;;;;;;;10.00;3.22;;;28.20;56.40;;;;;;5093434;28;20023;-70
2021/09/18 10:12:02;;;;;;;10.20;3.17;;;28.30;56.70;;;;;;5074979;28;20046;-70
2021/09/18 10:14:30;;;;;;;9.98;2.80;;;28.40;55.90;;;;;;5093227;28;20020;-71
2021/09/18 10:16:59;;;;;;;10.43;3.08;;;28.40;56.20;;;;;;5074772;28;20024;-73
2021/09/18 10:20:11;;;;;;;9.55;2.85;;;28.50;55.40;;;;;;5093416;28;20044;-71
2021/09/18 10:25:18;;;;;;;10.95;3.42;;;28.60;55.40;;;;;;5093133;28;20436;-76
2021/09/18 10:28:09;;;;;;;8.60;3.28;;;28.70;54.70;;;;;;5093229;28;20032;-74
2021/09/18 10:30:43;;;;;;;9.25;3.35;;;28.80;55.80;;;;;;5093259;28;20114;-70
2021/09/18 10:33:33;;;;;;;11.23;3.13;;;28.90;55.80;;;;;;5093156;28;20117;-72
2021/09/18 10:36:05;;;;;;;8.25;3.15;;;29.00;55.00;;;;;;5093118;28;20020;-71
2021/09/18 10:38:34;;;;;;;7.00;2.80;;;29.10;54.00;;;;;;5093016;28;20131;-71
2021/09/18 10:41:02;;;;;;;9.90;3.22;;;29.20;54.20;;;;;;5093075;28;20021;-72
2021/09/18 10:43:35;;;;;;;10.13;2.88;;;29.20;53.70;;;;;;5074791;28;20024;-71
2021/09/18 10:46:02;;;;;;;5.95;3.00;;;29.20;53.20;;;;;;5092333;28;20043;-71
2021/09/18 10:48:46;;;;;;;8.75;2.78;;;29.20;53.50;;;;;;5092424;28;20028;-70
2021/09/18 10:51:32;;;;;;;9.95;2.75;;;29.30;53.60;;;;;;5092882;28;20028;-70
2021/09/18 10:54:15;;;;;;;10.10;2.90;;;29.30;53.20;;;;;;5092551;28;20047;-71
2021/09/18 10:57:02;;;;;;;10.53;2.87;;;29.40;53.00;;;;;;5092490;28;20028;-69
2021/09/18 10:59:45;;;;;;;5.80;2.90;;;29.40;53.20;;;;;;5092505;28;20101;-70
2021/09/18 11:02:29;;;;;;;8.63;3.38;;;29.50;53.10;;;;;;5092639;28;20096;-70
2021/09/18 11:05:05;;;;;;;7.65;2.50;;;29.60;53.30;;;;;;5092761;28;20036;-71
2021/09/18 11:07:40;;;;;;;6.57;2.28;;;29.60;52.90;;;;;;5092514;28;20040;-69
2021/09/18 11:10:08;;;;;;;9.93;2.40;;;29.60;52.10;;;;;;5092689;28;20082;-71
2021/09/18 11:12:34;;;;;;;8.93;2.35;;;29.60;52.20;;;;;;5092557;28;20464;-70
2021/09/18 11:15:01;;;;;;;7.15;2.45;;;29.70;51.60;;;;;;5109345;22;20024;-73
2021/09/18 11:17:34;;;;;;;6.25;2.25;;;29.70;51.30;;;;;;5010799;28;20033;-77
2021/09/18 11:20:13;;;;;;;6.93;2.30;;;29.80;50.80;;;;;;5012273;28;20056;-79
2021/09/18 11:22:39;;;;;;;6.38;2.60;;;29.80;50.70;;;;;;4994579;28;20054;-78
2021/09/18 11:25:34;;;;;;;7.03;2.33;;;29.90;50.60;;;;;;5017521;28;20072;-81
2021/09/18 11:28:12;;;;;;;7.93;1.95;;;29.90;49.90;;;;;;5031791;28;20034;-79
2021/09/18 11:30:42;;;;;;;7.35;2.40;;;29.90;49.60;;;;;;5032343;28;20057;-80
2021/09/18 11:33:09;;;;;;;6.65;2.70;;;30.00;50.50;;;;;;5032161;28;20030;-80
2021/09/18 11:35:37;;;;;;;7.28;2.38;;;30.00;50.70;;;;;;5031623;28;20016;-81
2021/09/18 11:38:05;;;;;;;7.63;2.28;;;30.10;50.80;;;;;;5031952;28;20035;-80
2021/09/18 11:40:33;;;;;;;7.13;2.22;;;30.20;50.50;;;;;;5031812;28;20467;-75
2021/09/18 11:42:59;;;;;;;6.50;2.35;;;30.20;50.20;;;;;;5031727;28;20025;-74
2021/09/18 11:45:27;;;;;;;8.07;2.55;;;30.20;49.90;;;;;;5031283;28;20026;-77
2021/09/18 11:47:56;;;;;;;5.82;2.20;;;30.20;50.20;;;;;;5035039;28;20363;-74
2021/09/18 11:50:30;;;;;;;7.13;2.60;;;30.30;50.10;;;;;;5001569;28;20317;-75
2021/09/18 11:53:01;;;;;;;11.10;2.72;;;30.30;50.10;;;;;;5035338;28;20022;-75
2021/09/18 11:55:34;;;;;;;6.72;2.40;;;30.40;49.10;;;;;;5035417;28;20080;-73
2021/09/18 11:58:14;;;;;;;5.80;2.47;;;30.40;50.00;;;;;;5035404;28;20654;-78
2021/09/18 12:00:48;;;;;;;6.78;2.50;;;30.40;48.70;;;;;;5035516;28;20030;-75
2021/09/18 12:03:18;;;;;;;7.65;2.78;;;30.50;50.20;;;;;;5035431;28;20108;-74
2021/09/18 12:05:50;;;;;;;7.40;2.33;;;30.50;50.70;;;;;;5035433;28;20079;-76
2021/09/18 12:08:23;;;;;;;7.20;3.38;;;30.50;50.20;;;;;;5035484;28;20175;-77
2021/09/18 12:10:56;;;;;;;8.30;3.20;;;30.60;50.30;;;;;;5035454;28;20040;-80
2021/09/18 12:13:23;;;;;;;7.53;2.55;;;30.60;50.10;;;;;;5035215;28;20537;-74
2021/09/18 12:15:52;;;;;;;6.10;2.47;;;30.60;50.50;;;;;;5034662;28;20127;-75
2021/09/18 12:18:24;;;;;;;6.57;2.58;;;30.60;49.10;;;;;;5017845;28;20040;-76
2021/09/18 12:20:56;;;;;;;6.20;2.40;;;30.60;50.20;;;;;;5017893;28;20072;-75
2021/09/18 12:23:22;;;;;;;7.22;2.58;;;30.60;48.80;;;;;;5035308;28;20084;-74
2021/09/18 12:26:19;;;;;;;8.30;2.47;;;30.70;50.60;;;;;;5017196;28;20041;-75
2021/09/18 12:28:48;;;;;;;9.23;2.55;;;30.70;50.40;;;;;;5017850;28;20038;-73
2021/09/18 12:31:21;;;;;;;10.77;2.83;;;30.70;50.60;;;;;;5035294;28;20028;-74
2021/09/18 12:34:10;;;;;;;6.32;2.00;;;30.70;49.50;;;;;;5001324;28;20034;-78
2021/09/18 12:36:39;;;;;;;5.35;2.13;;;30.70;49.10;;;;;;5035354;28;20025;-74
2021/09/18 12:39:10;;;;;;;6.95;2.42;;;30.80;50.80;;;;;;5035946;28;20116;-75
2021/09/18 12:41:40;;;;;;;6.65;2.10;;;30.80;49.20;;;;;;5035616;28;20440;-76
2021/09/18 12:44:11;;;;;;;5.75;2.00;;;30.80;49.30;;;;;;5035329;28;20026;-78
2021/09/18 12:46:42;;;;;;;11.77;2.58;;;30.80;51.00;;;;;;5034933;28;20487;-81